createdAt,value
2019-04-27T00:00:39.408Z,0
2019-04-27T00:01:44.761Z,0
2019-04-27T00:02:43.468Z,0
2019-04-27T00:03:44.843Z,0
2019-04-27T00:04:44.699Z,0
2019-04-27T00:05:46.050Z,0
2019-04-27T00:06:47.412Z,0
2019-04-27T00:07:51.511Z,0
2019-04-27T00:08:50.084Z,0
2019-04-27T00:09:53.015Z,0
2019-04-27T00:10:53.252Z,0
2019-04-27T00:11:54.072Z,0
2019-04-27T00:12:57.183Z,0
2019-04-27T00:13:56.764Z,0
2019-04-27T00:14:58.112Z,0
2019-04-27T00:15:59.466Z,0
2019-04-27T00:17:00.819Z,0
2019-04-27T00:18:03.561Z,0
2019-04-27T00:19:03.918Z,0
2019-04-27T00:20:04.805Z,0
2019-04-27T00:21:06.168Z,0
2019-04-27T00:22:07.513Z,0
2019-04-27T00:23:08.869Z,0
2019-04-27T00:24:10.215Z,0
2019-04-27T00:25:13.002Z,0
2019-04-27T00:26:13.104Z,0
2019-04-27T00:27:14.196Z,0
2019-04-27T00:28:15.554Z,0
2019-04-27T00:29:16.913Z,0
2019-04-27T00:30:18.276Z,0
2019-04-27T00:31:19.626Z,0
2019-04-27T00:32:20.991Z,0
2019-04-27T00:33:23.719Z,0
2019-04-27T00:34:23.703Z,0
2019-04-27T00:35:25.031Z,0
2019-04-27T00:36:26.389Z,0
2019-04-27T00:37:27.742Z,0
2019-04-27T00:38:29.095Z,0
2019-04-27T00:39:30.450Z,0
2019-04-27T00:40:33.432Z,0
2019-04-27T00:41:33.980Z,0
2019-04-27T00:42:35.726Z,0
2019-04-27T00:43:35.743Z,0
2019-04-27T00:44:37.103Z,0
2019-04-27T00:45:38.446Z,0
2019-04-27T00:46:39.796Z,0
2019-04-27T00:47:53.785Z,0
2019-04-27T00:48:43.278Z,0
2019-04-27T00:49:44.356Z,0
2019-04-27T00:50:45.098Z,0
2019-04-27T00:51:46.458Z,0
2019-04-27T00:52:47.805Z,0
2019-04-27T00:53:49.168Z,0
2019-04-27T00:54:50.517Z,0
2019-04-27T00:55:53.537Z,0
2019-04-27T00:56:53.181Z,0
2019-04-27T00:57:54.535Z,0
2019-04-27T00:58:55.886Z,0
2019-04-27T00:59:57.238Z,0
2019-04-27T01:00:58.581Z,0
2019-04-27T01:01:59.938Z,0
2019-04-27T01:03:01.299Z,0
2019-04-27T01:04:03.754Z,0
2019-04-27T01:05:05.770Z,0
2019-04-27T01:06:05.294Z,0
2019-04-27T01:07:06.643Z,0
2019-04-27T01:08:08.000Z,0
2019-04-27T01:09:09.349Z,0
2019-04-27T01:10:10.731Z,0
2019-04-27T01:11:12.064Z,0
2019-04-27T01:12:13.597Z,0
2019-04-27T01:13:14.738Z,0
2019-04-27T01:14:16.083Z,0
2019-04-27T01:15:17.439Z,0
2019-04-27T01:16:21.948Z,0
2019-04-27T01:17:20.114Z,0
2019-04-27T01:18:21.494Z,0
2019-04-27T01:19:22.854Z,0
2019-04-27T01:20:24.210Z,0
2019-04-27T01:21:25.565Z,0
2019-04-27T01:22:26.906Z,0
2019-04-27T01:23:29.421Z,0
2019-04-27T01:24:30.378Z,0
2019-04-27T01:25:30.908Z,0
2019-04-27T01:26:32.259Z,0
2019-04-27T01:27:33.609Z,0
2019-04-27T01:28:34.958Z,0
2019-04-27T01:29:36.314Z,0
2019-04-27T01:30:39.106Z,0
2019-04-27T01:31:39.607Z,0
2019-04-27T01:32:40.296Z,0
2019-04-27T01:33:41.656Z,0
2019-04-27T01:34:43.001Z,0
2019-04-27T01:35:44.351Z,0
2019-04-27T01:36:45.720Z,0
2019-04-27T01:37:48.680Z,0
2019-04-27T01:38:49.589Z,0
2019-04-27T01:39:50.404Z,0
2019-04-27T01:40:51.014Z,0
2019-04-27T01:41:52.359Z,0
2019-04-27T01:42:53.709Z,0
2019-04-27T01:43:55.055Z,0
2019-04-27T01:44:56.415Z,0
2019-04-27T01:45:58.698Z,0
2019-04-27T01:46:59.871Z,0
2019-04-27T01:48:00.410Z,0
2019-04-27T01:49:01.757Z,0
2019-04-27T01:50:03.097Z,0
2019-04-27T01:51:04.457Z,0
2019-04-27T01:52:05.822Z,0
2019-04-27T01:53:08.846Z,0
2019-04-27T01:54:10.226Z,0
2019-04-27T01:55:09.808Z,0
2019-04-27T01:56:11.147Z,0
2019-04-27T01:57:12.505Z,0
2019-04-27T01:58:13.860Z,0
2019-04-27T01:59:15.215Z,0
2019-04-27T02:00:16.557Z,0
2019-04-27T02:01:18.709Z,0
2019-04-27T02:02:19.241Z,0
2019-04-27T02:03:20.598Z,0
2019-04-27T02:04:21.943Z,0
2019-04-27T02:05:23.295Z,0
2019-04-27T02:06:24.648Z,0
2019-04-27T02:07:25.993Z,0
2019-04-27T02:08:28.555Z,0
2019-04-27T02:09:28.906Z,0
2019-04-27T02:10:29.977Z,0
2019-04-27T02:11:31.330Z,0
2019-04-27T02:12:32.672Z,0
2019-04-27T02:13:34.155Z,0
2019-04-27T02:14:35.502Z,0
2019-04-27T02:15:36.853Z,0
2019-04-27T02:16:39.170Z,0
2019-04-27T02:17:39.518Z,0
2019-04-27T02:18:40.871Z,0
2019-04-27T02:19:42.217Z,0
2019-04-27T02:20:44.512Z,0
2019-04-27T02:21:44.888Z,0
2019-04-27T02:22:46.233Z,0
2019-04-27T02:23:47.591Z,0
2019-04-27T02:24:49.239Z,0
2019-04-27T02:26:30.050Z,0
2019-04-27T02:27:31.162Z,0
2019-04-27T02:28:32.541Z,0
2019-04-27T02:29:33.891Z,0
2019-04-27T02:30:35.254Z,0
2019-04-27T02:31:36.603Z,0
2019-04-27T02:32:39.744Z,0
2019-04-27T02:33:40.350Z,0
2019-04-27T02:34:40.588Z,0
2019-04-27T02:35:42.206Z,0
2019-04-27T02:36:43.262Z,0
2019-04-27T02:37:44.616Z,0
2019-04-27T02:38:45.984Z,0
2019-04-27T02:39:49.800Z,0
2019-04-27T02:40:49.595Z,0
2019-04-27T02:41:51.811Z,0
2019-04-27T02:42:54.477Z,0
2019-04-27T02:43:52.578Z,0
2019-04-27T02:44:53.929Z,0
2019-04-27T02:45:55.275Z,0
2019-04-27T02:46:56.627Z,0
2019-04-27T02:47:59.843Z,0
2019-04-27T02:49:03.188Z,0
2019-04-27T02:50:00.786Z,0
2019-04-27T02:51:01.920Z,0
2019-04-27T02:52:03.276Z,0
2019-04-27T02:53:04.615Z,0
2019-04-27T02:54:05.969Z,0
2019-04-27T02:55:09.270Z,0
2019-04-27T02:56:10.236Z,0
2019-04-27T02:57:10.305Z,0
2019-04-27T02:58:13.054Z,0
2019-04-27T02:59:12.619Z,0
2019-04-27T03:00:13.975Z,0
2019-04-27T03:01:15.325Z,0
2019-04-27T03:02:19.426Z,0
2019-04-27T03:03:20.217Z,0
2019-04-27T03:04:20.409Z,0
2019-04-27T03:05:20.721Z,0
2019-04-27T03:06:22.088Z,0
2019-04-27T03:07:23.429Z,0
2019-04-27T03:08:24.794Z,0
2019-04-27T03:09:26.140Z,0
2019-04-27T03:10:29.631Z,0
2019-04-27T03:11:30.650Z,0
2019-04-27T03:12:30.152Z,0
2019-04-27T03:13:31.500Z,0
2019-04-27T03:14:36.051Z,0
2019-04-27T03:15:34.160Z,0
2019-04-27T03:16:35.528Z,0
2019-04-27T03:17:39.238Z,0
2019-04-27T03:18:40.384Z,0
2019-04-27T03:19:40.049Z,0
2019-04-27T03:20:40.825Z,0
2019-04-27T03:21:42.178Z,0
2019-04-27T03:22:43.534Z,0
2019-04-27T03:23:44.888Z,0
2019-04-27T03:24:46.231Z,0
2019-04-27T03:25:50.364Z,0
2019-04-27T03:26:50.004Z,0
2019-04-27T03:27:50.404Z,0
2019-04-27T03:28:51.532Z,0
2019-04-27T03:29:52.884Z,0
2019-04-27T03:30:54.238Z,0
2019-04-27T03:31:55.583Z,0
2019-04-27T03:32:58.812Z,0
2019-04-27T03:34:00.309Z,0
2019-04-27T03:35:02.697Z,0
2019-04-27T03:36:02.559Z,0
2019-04-27T03:37:02.220Z,0
2019-04-27T03:38:03.586Z,0
2019-04-27T03:39:04.919Z,0
2019-04-27T03:40:06.270Z,0
2019-04-27T03:41:09.358Z,0
2019-04-27T03:42:10.390Z,0
2019-04-27T03:43:11.714Z,0
2019-04-27T03:44:11.563Z,0
2019-04-27T03:45:13.052Z,0
2019-04-27T03:46:14.411Z,0
2019-04-27T03:47:15.769Z,0
2019-04-27T03:48:17.107Z,0
2019-04-27T03:49:29.388Z,0
2019-04-27T03:50:20.339Z,0
2019-04-27T03:51:21.083Z,0
2019-04-27T03:52:22.464Z,0
2019-04-27T03:53:23.815Z,0
2019-04-27T03:54:25.168Z,0
2019-04-27T03:55:26.514Z,0
2019-04-27T03:56:30.022Z,0
2019-04-27T03:57:29.746Z,0
2019-04-27T03:58:30.636Z,0
2019-04-27T03:59:32.554Z,0
2019-04-27T04:00:33.159Z,0
2019-04-27T04:01:34.518Z,0
2019-04-27T04:02:35.880Z,0
2019-04-27T04:03:39.156Z,5
2019-04-27T04:04:40.525Z,5
2019-04-27T04:05:39.995Z,5
2019-04-27T04:06:41.191Z,5
2019-04-27T04:07:42.539Z,5
2019-04-27T04:08:43.894Z,5
2019-04-27T04:09:45.260Z,11
2019-04-27T04:10:46.609Z,11
2019-04-27T04:11:49.134Z,11
2019-04-27T04:12:50.106Z,16
2019-04-27T04:13:50.612Z,16
2019-04-27T04:14:51.968Z,16
2019-04-27T04:15:53.373Z,16
2019-04-27T04:16:58.862Z,22
2019-04-27T04:17:56.037Z,22
2019-04-27T04:18:57.410Z,22
2019-04-27T04:20:01.227Z,28
2019-04-27T04:21:00.476Z,28
2019-04-27T04:22:01.400Z,28
2019-04-27T04:23:03.410Z,33
2019-04-27T04:24:04.090Z,33
2019-04-27T04:25:05.452Z,33
2019-04-27T04:26:06.801Z,39
2019-04-27T04:27:09.697Z,39
2019-04-27T04:28:09.622Z,45
2019-04-27T04:29:10.812Z,45
2019-04-27T04:30:12.589Z,50
2019-04-27T04:31:13.933Z,56
2019-04-27T04:32:14.888Z,61
2019-04-27T04:33:16.234Z,67
2019-04-27T04:34:19.558Z,73
2019-04-27T04:35:21.203Z,73
2019-04-27T04:36:20.355Z,78
2019-04-27T04:37:21.558Z,84
2019-04-27T04:38:22.921Z,90
2019-04-27T04:39:24.278Z,90
2019-04-27T04:40:25.627Z,90
2019-04-27T04:41:27.010Z,95
2019-04-27T04:42:29.985Z,95
2019-04-27T04:43:29.713Z,95
2019-04-27T04:44:31.070Z,90
2019-04-27T04:45:32.412Z,90
2019-04-27T04:46:33.839Z,90
2019-04-27T04:47:35.187Z,90
2019-04-27T04:48:36.530Z,90
2019-04-27T04:49:39.602Z,95
2019-04-27T04:50:39.647Z,95
2019-04-27T04:51:40.577Z,101
2019-04-27T04:52:42.415Z,101
2019-04-27T04:53:43.255Z,101
2019-04-27T04:54:44.627Z,106
2019-04-27T04:55:45.978Z,106
2019-04-27T04:56:48.908Z,106
2019-04-27T04:57:49.337Z,112
2019-04-27T04:58:49.988Z,112
2019-04-27T04:59:51.576Z,112
2019-04-27T05:00:52.684Z,118
2019-04-27T05:01:54.084Z,118
2019-04-27T05:02:55.429Z,123
2019-04-27T05:03:56.804Z,123
2019-04-27T05:04:59.072Z,123
2019-04-27T05:05:59.512Z,129
2019-04-27T05:07:00.890Z,129
2019-04-27T05:08:02.234Z,135
2019-04-27T05:09:03.599Z,135
2019-04-27T05:10:04.953Z,140
2019-04-27T05:11:06.314Z,140
2019-04-27T05:12:08.781Z,146
2019-04-27T05:13:09.380Z,146
2019-04-27T05:14:10.335Z,151
2019-04-27T05:15:11.680Z,151
2019-04-27T05:16:13.044Z,157
2019-04-27T05:17:14.410Z,168
2019-04-27T05:18:15.758Z,168
2019-04-27T05:19:18.743Z,168
2019-04-27T05:20:24.376Z,168
2019-04-27T05:21:19.804Z,191
2019-04-27T05:22:21.159Z,225
2019-04-27T05:23:22.523Z,264
2019-04-27T05:24:23.875Z,270
2019-04-27T05:25:25.232Z,236
2019-04-27T05:26:26.597Z,202
2019-04-27T05:27:29.009Z,202
2019-04-27T05:28:29.881Z,241
2019-04-27T05:29:30.597Z,298
2019-04-27T05:30:31.964Z,292
2019-04-27T05:31:33.349Z,270
2019-04-27T05:32:34.704Z,275
2019-04-27T05:33:36.068Z,292
2019-04-27T05:34:39.329Z,292
2019-04-27T05:35:40.855Z,298
2019-04-27T05:36:41.667Z,292
2019-04-27T05:37:44.276Z,281
2019-04-27T05:38:45.843Z,275
2019-04-27T05:39:44.110Z,270
2019-04-27T05:40:45.480Z,275
2019-04-27T05:41:46.847Z,281
2019-04-27T05:42:48.850Z,286
2019-04-27T05:43:49.533Z,309
2019-04-27T05:44:50.894Z,320
2019-04-27T05:45:53.216Z,270
2019-04-27T05:46:53.695Z,247
2019-04-27T05:47:54.982Z,253
2019-04-27T05:48:59.919Z,281
2019-04-27T05:49:58.857Z,326
2019-04-27T05:51:01.755Z,286
2019-04-27T05:52:00.303Z,298
2019-04-27T05:53:02.389Z,331
2019-04-27T05:54:03.750Z,348
2019-04-27T05:55:05.116Z,371
2019-04-27T05:56:06.473Z,399
2019-04-27T05:57:09.393Z,416
2019-04-27T05:58:09.395Z,433
2019-04-27T05:59:10.483Z,455
2019-04-27T06:00:11.849Z,461
2019-04-27T06:01:13.218Z,466
2019-04-27T06:02:14.565Z,472
2019-04-27T06:03:15.935Z,478
2019-04-27T06:04:19.083Z,483
2019-04-27T06:05:18.991Z,495
2019-04-27T06:06:19.949Z,495
2019-04-27T06:07:21.309Z,500
2019-04-27T06:08:22.668Z,511
2019-04-27T06:09:24.024Z,511
2019-04-27T06:10:25.389Z,517
2019-04-27T06:11:28.184Z,556
2019-04-27T06:12:29.404Z,624
2019-04-27T06:13:31.018Z,703
2019-04-27T06:14:30.774Z,765
2019-04-27T06:15:32.129Z,781
2019-04-27T06:16:33.493Z,720
2019-04-27T06:17:34.859Z,624
2019-04-27T06:18:36.211Z,601
2019-04-27T06:19:38.980Z,641
2019-04-27T06:20:50.444Z,742
2019-04-27T06:21:40.333Z,905
2019-04-27T06:22:41.582Z,877
2019-04-27T06:23:42.942Z,826
2019-04-27T06:24:44.303Z,821
2019-04-27T06:25:45.669Z,826
2019-04-27T06:26:47.037Z,708
2019-04-27T06:27:49.542Z,596
2019-04-27T06:28:50.470Z,641
2019-04-27T06:29:51.052Z,714
2019-04-27T06:30:52.414Z,708
2019-04-27T06:31:53.822Z,573
2019-04-27T06:32:55.184Z,618
2019-04-27T06:33:56.573Z,568
2019-04-27T06:34:59.023Z,765
2019-04-27T06:35:59.457Z,686
2019-04-27T06:37:00.604Z,787
2019-04-27T06:38:01.969Z,720
2019-04-27T06:39:03.329Z,736
2019-04-27T06:40:04.695Z,731
2019-04-27T06:41:06.066Z,742
2019-04-27T06:42:16.721Z,742
2019-04-27T06:43:08.785Z,765
2019-04-27T06:44:11.458Z,838
2019-04-27T06:45:11.457Z,939
2019-04-27T06:46:12.812Z,1040
2019-04-27T06:47:14.180Z,1108
2019-04-27T06:48:15.544Z,1164
2019-04-27T06:49:16.920Z,1260
2019-04-27T06:50:19.500Z,1288
2019-04-27T06:51:19.667Z,1316
2019-04-27T06:52:20.983Z,1305
2019-04-27T06:53:22.353Z,1327
2019-04-27T06:54:23.720Z,1243
2019-04-27T06:55:25.090Z,1018
2019-04-27T06:56:26.462Z,928
2019-04-27T06:57:29.137Z,871
2019-04-27T06:58:29.344Z,826
2019-04-27T06:59:30.509Z,770
2019-04-27T07:00:31.874Z,725
2019-04-27T07:01:33.234Z,691
2019-04-27T07:02:34.648Z,646
2019-04-27T07:03:36.014Z,573
2019-04-27T07:04:38.939Z,511
2019-04-27T07:05:38.808Z,489
2019-04-27T07:06:52.790Z,545
2019-04-27T07:07:41.388Z,601
2019-04-27T07:08:42.752Z,658
2019-04-27T07:09:44.124Z,675
2019-04-27T07:10:45.490Z,663
2019-04-27T07:11:46.864Z,691
2019-04-27T07:12:49.096Z,708
2019-04-27T07:13:49.794Z,776
2019-04-27T07:14:54.886Z,686
2019-04-27T07:15:52.210Z,753
2019-04-27T07:16:53.586Z,714
2019-04-27T07:17:54.956Z,663
2019-04-27T07:18:56.320Z,455
2019-04-27T07:19:59.257Z,360
2019-04-27T07:20:59.047Z,292
2019-04-27T07:22:00.414Z,275
2019-04-27T07:23:01.775Z,270
2019-04-27T07:24:03.163Z,264
2019-04-27T07:25:04.520Z,258
2019-04-27T07:26:05.897Z,241
2019-04-27T07:27:07.253Z,236
2019-04-27T07:28:09.151Z,264
2019-04-27T07:29:09.967Z,298
2019-04-27T07:30:11.728Z,303
2019-04-27T07:31:12.659Z,275
2019-04-27T07:32:14.030Z,253
2019-04-27T07:33:15.395Z,253
2019-04-27T07:34:16.760Z,281
2019-04-27T07:35:19.505Z,326
2019-04-27T07:36:19.452Z,365
2019-04-27T07:37:20.824Z,376
2019-04-27T07:38:22.177Z,388
2019-04-27T07:39:23.553Z,410
2019-04-27T07:40:24.917Z,399
2019-04-27T07:41:26.284Z,399
2019-04-27T07:42:30.296Z,416
2019-04-27T07:43:29.284Z,461
2019-04-27T07:44:30.308Z,545
2019-04-27T07:45:31.669Z,613
2019-04-27T07:46:33.034Z,624
2019-04-27T07:47:34.411Z,573
2019-04-27T07:48:35.775Z,461
2019-04-27T07:49:39.002Z,405
2019-04-27T07:50:39.033Z,360
2019-04-27T07:51:39.801Z,337
2019-04-27T07:52:41.176Z,343
2019-04-27T07:53:42.528Z,343
2019-04-27T07:54:43.897Z,337
2019-04-27T07:55:45.258Z,348
2019-04-27T07:56:46.624Z,376
2019-04-27T07:57:49.352Z,444
2019-04-27T07:58:49.447Z,489
2019-04-27T07:59:50.644Z,478
2019-04-27T08:00:52.008Z,511
2019-04-27T08:01:53.378Z,540
2019-04-27T08:02:54.747Z,495
2019-04-27T08:03:56.103Z,500
2019-04-27T08:04:57.479Z,528
2019-04-27T08:05:58.938Z,579
2019-04-27T08:07:00.139Z,528
2019-04-27T08:08:01.496Z,483
2019-04-27T08:09:02.869Z,427
2019-04-27T08:10:04.229Z,376
2019-04-27T08:11:05.591Z,326
2019-04-27T08:12:06.953Z,326
2019-04-27T08:13:09.500Z,292
2019-04-27T08:14:09.644Z,253
2019-04-27T08:15:11.000Z,225
2019-04-27T08:16:12.375Z,208
2019-04-27T08:17:13.744Z,241
2019-04-27T08:18:15.108Z,241
2019-04-27T08:19:16.465Z,225
2019-04-27T08:20:19.222Z,202
2019-04-27T08:21:19.170Z,185
2019-04-27T08:22:20.529Z,191
2019-04-27T08:23:21.909Z,202
2019-04-27T08:24:23.245Z,236
2019-04-27T08:25:24.628Z,241
2019-04-27T08:27:05.511Z,196
2019-04-27T08:28:08.525Z,185
2019-04-27T08:29:08.600Z,185
2019-04-27T08:30:09.537Z,185
2019-04-27T08:31:10.890Z,174
2019-04-27T08:32:12.250Z,180
2019-04-27T08:33:13.614Z,180
2019-04-27T08:34:14.983Z,180
2019-04-27T08:35:16.352Z,180
2019-04-27T08:36:18.931Z,213
2019-04-27T08:37:19.042Z,264
2019-04-27T08:38:20.669Z,264
2019-04-27T08:39:21.714Z,286
2019-04-27T08:40:23.081Z,286
2019-04-27T08:41:24.445Z,292
2019-04-27T08:42:25.795Z,326
2019-04-27T08:43:28.844Z,343
2019-04-27T08:44:29.216Z,337
2019-04-27T08:45:29.815Z,354
2019-04-27T08:46:31.182Z,309
2019-04-27T08:47:32.536Z,309
2019-04-27T08:48:36.734Z,253
2019-04-27T08:49:35.224Z,225
2019-04-27T08:50:37.791Z,253
2019-04-27T08:51:39.200Z,281
2019-04-27T08:52:41.628Z,320
2019-04-27T08:53:40.558Z,298
2019-04-27T08:54:41.924Z,270
2019-04-27T08:55:43.291Z,275
2019-04-27T08:56:44.679Z,225
2019-04-27T08:57:46.030Z,174
2019-04-27T08:58:47.387Z,157
2019-04-27T08:59:48.953Z,185
2019-04-27T09:00:50.076Z,202
2019-04-27T09:01:51.438Z,236
2019-04-27T09:02:52.802Z,241
2019-04-27T09:03:54.165Z,275
2019-04-27T09:04:55.539Z,309
2019-04-27T09:05:56.919Z,292
2019-04-27T09:06:59.538Z,286
2019-04-27T09:07:59.804Z,281
2019-04-27T09:09:00.936Z,286
2019-04-27T09:10:02.295Z,298
2019-04-27T09:11:03.692Z,298
2019-04-27T09:12:05.052Z,298
2019-04-27T09:13:06.425Z,298
2019-04-27T09:14:08.948Z,303
2019-04-27T09:15:09.983Z,292
2019-04-27T09:16:11.122Z,286
2019-04-27T09:17:11.770Z,292
2019-04-27T09:18:13.141Z,315
2019-04-27T09:19:14.501Z,354
2019-04-27T09:20:15.881Z,388
2019-04-27T09:21:19.077Z,382
2019-04-27T09:22:20.524Z,382
2019-04-27T09:23:19.919Z,388
2019-04-27T09:24:21.281Z,399
2019-04-27T09:25:22.639Z,393
2019-04-27T09:26:24.017Z,399
2019-04-27T09:27:25.386Z,427
2019-04-27T09:28:26.770Z,438
2019-04-27T09:29:29.803Z,438
2019-04-27T09:30:29.797Z,433
2019-04-27T09:31:30.792Z,438
2019-04-27T09:32:32.150Z,478
2019-04-27T09:33:33.722Z,483
2019-04-27T09:34:36.660Z,478
2019-04-27T09:35:36.360Z,450
2019-04-27T09:36:37.813Z,416
2019-04-27T09:37:39.161Z,421
2019-04-27T09:38:40.526Z,433
2019-04-27T09:39:41.889Z,438
2019-04-27T09:40:43.243Z,376
2019-04-27T09:41:46.022Z,421
2019-04-27T09:42:46.343Z,568
2019-04-27T09:43:47.321Z,624
2019-04-27T09:44:48.710Z,669
2019-04-27T09:45:50.424Z,663
2019-04-27T09:46:52.116Z,573
2019-04-27T09:47:53.721Z,596
2019-04-27T09:48:56.460Z,556
2019-04-27T09:49:57.223Z,551
2019-04-27T09:50:58.886Z,646
2019-04-27T09:52:00.489Z,686
2019-04-27T09:53:02.191Z,646
2019-04-27T09:54:05.399Z,523
2019-04-27T09:55:06.578Z,534
2019-04-27T09:56:07.186Z,562
2019-04-27T09:57:08.539Z,556
2019-04-27T09:58:09.956Z,568
2019-04-27T09:59:11.397Z,444
2019-04-27T10:00:12.813Z,360
2019-04-27T10:01:15.884Z,343
2019-04-27T10:02:16.527Z,382
2019-04-27T10:03:16.886Z,444
2019-04-27T10:04:18.910Z,455
2019-04-27T10:05:20.300Z,421
2019-04-27T10:06:21.710Z,438
2019-04-27T10:07:23.096Z,421
2019-04-27T10:08:25.985Z,360
2019-04-27T10:09:26.365Z,382
2019-04-27T10:10:27.206Z,360
2019-04-27T10:11:28.570Z,371
2019-04-27T10:12:29.935Z,393
2019-04-27T10:13:31.307Z,472
2019-04-27T10:14:32.670Z,489
2019-04-27T10:15:35.614Z,489
2019-04-27T10:16:36.630Z,450
2019-04-27T10:17:37.125Z,483
2019-04-27T10:18:38.491Z,556
2019-04-27T10:19:39.875Z,663
2019-04-27T10:20:41.259Z,686
2019-04-27T10:21:42.605Z,596
2019-04-27T10:22:44.078Z,545
2019-04-27T10:23:46.858Z,556
2019-04-27T10:24:46.684Z,585
2019-04-27T10:25:48.047Z,680
2019-04-27T10:26:49.410Z,714
2019-04-27T10:27:50.771Z,742
2019-04-27T10:28:52.146Z,770
2019-04-27T10:29:53.510Z,804
2019-04-27T10:30:55.741Z,810
2019-04-27T10:31:56.501Z,759
2019-04-27T10:32:57.526Z,731
2019-04-27T10:33:58.891Z,708
2019-04-27T10:35:00.253Z,680
2019-04-27T10:36:01.623Z,675
2019-04-27T10:37:03.020Z,703
2019-04-27T10:38:04.391Z,736
2019-04-27T10:39:05.760Z,736
2019-04-27T10:40:07.115Z,703
2019-04-27T10:41:08.487Z,573
2019-04-27T10:42:09.865Z,461
2019-04-27T10:43:11.236Z,444
2019-04-27T10:44:12.609Z,410
2019-04-27T10:45:13.968Z,410
2019-04-27T10:46:15.680Z,466
2019-04-27T10:47:16.678Z,489
2019-04-27T10:48:18.120Z,444
2019-04-27T10:49:19.452Z,376
2019-04-27T10:50:20.908Z,337
2019-04-27T10:51:22.418Z,360
2019-04-27T10:52:23.900Z,365
2019-04-27T10:53:26.728Z,343
2019-04-27T10:54:26.686Z,365
2019-04-27T10:55:28.002Z,461
2019-04-27T10:56:29.782Z,427
2019-04-27T10:57:31.141Z,337
2019-04-27T10:58:32.955Z,281
2019-04-27T10:59:35.913Z,270
2019-04-27T11:00:36.785Z,309
2019-04-27T11:01:37.795Z,478
2019-04-27T11:02:39.211Z,556
2019-04-27T11:03:40.763Z,528
2019-04-27T11:04:42.120Z,466
2019-04-27T11:05:43.476Z,506
2019-04-27T11:06:45.093Z,489
2019-04-27T11:07:46.466Z,399
2019-04-27T11:08:48.344Z,376
2019-04-27T11:09:49.253Z,376
2019-04-27T11:10:50.618Z,438
2019-04-27T11:11:52.048Z,495
2019-04-27T11:12:53.481Z,478
2019-04-27T11:13:56.631Z,500
2019-04-27T11:14:56.344Z,450
2019-04-27T11:15:57.848Z,343
2019-04-27T11:16:59.336Z,298
2019-04-27T11:18:00.909Z,298
2019-04-27T11:19:02.511Z,348
2019-04-27T11:20:03.983Z,450
2019-04-27T11:21:05.787Z,540
2019-04-27T11:22:07.457Z,585
2019-04-27T11:23:12.163Z,495
2019-04-27T11:24:10.082Z,354
2019-04-27T11:25:11.478Z,270
2019-04-27T11:26:12.913Z,270
2019-04-27T11:27:14.447Z,315
2019-04-27T11:28:16.012Z,393
2019-04-27T11:29:17.591Z,466
2019-04-27T11:30:19.178Z,466
2019-04-27T11:31:21.103Z,421
2019-04-27T11:32:22.903Z,421
2019-04-27T11:33:26.225Z,506
2019-04-27T11:34:25.907Z,562
2019-04-27T11:35:27.473Z,478
2019-04-27T11:36:29.000Z,455
2019-04-27T11:37:30.500Z,382
2019-04-27T11:38:31.956Z,337
2019-04-27T11:39:33.443Z,399
2019-04-27T11:40:36.382Z,466
2019-04-27T11:41:36.332Z,483
2019-04-27T11:42:37.806Z,461
2019-04-27T11:43:39.364Z,500
2019-04-27T11:44:40.829Z,326
2019-04-27T11:45:42.447Z,343
2019-04-27T11:46:45.511Z,433
2019-04-27T11:47:45.307Z,388
2019-04-27T11:48:46.766Z,500
2019-04-27T11:49:48.256Z,703
2019-04-27T11:50:49.713Z,720
2019-04-27T11:51:51.219Z,956
2019-04-27T11:52:52.725Z,1006
2019-04-27T11:53:54.201Z,939
2019-04-27T11:54:55.810Z,821
2019-04-27T11:55:57.227Z,843
2019-04-27T11:56:58.735Z,888
2019-04-27T11:58:00.199Z,894
2019-04-27T11:59:01.586Z,855
2019-04-27T12:00:03.022Z,787
2019-04-27T12:01:04.453Z,804
2019-04-27T12:02:05.894Z,815
2019-04-27T12:03:07.318Z,832
2019-04-27T12:04:08.783Z,793
2019-04-27T12:05:10.244Z,883
2019-04-27T12:06:11.687Z,731
2019-04-27T12:07:13.138Z,523
2019-04-27T12:08:16.073Z,388
2019-04-27T12:09:16.039Z,326
2019-04-27T12:10:17.502Z,253
2019-04-27T12:11:19.020Z,213
2019-04-27T12:12:21.935Z,213
2019-04-27T12:13:21.947Z,303
2019-04-27T12:14:23.423Z,478
2019-04-27T12:15:26.083Z,708
2019-04-27T12:16:26.348Z,815
2019-04-27T12:17:29.213Z,798
2019-04-27T12:18:29.302Z,680
2019-04-27T12:19:30.766Z,630
2019-04-27T12:20:32.300Z,573
2019-04-27T12:21:33.758Z,551
2019-04-27T12:22:35.210Z,562
2019-04-27T12:23:41.162Z,573
2019-04-27T12:24:38.094Z,630
2019-04-27T12:25:39.663Z,725
2019-04-27T12:26:41.138Z,855
2019-04-27T12:27:42.631Z,821
2019-04-27T12:28:45.865Z,1006
2019-04-27T12:29:47.184Z,1642
2019-04-27T12:30:46.964Z,2002
2019-04-27T12:31:49.121Z,2109
2019-04-27T12:32:49.887Z,1755
2019-04-27T12:33:51.419Z,1580
2019-04-27T12:34:52.946Z,1355
2019-04-27T12:35:54.382Z,1068
2019-04-27T12:36:55.809Z,1119
2019-04-27T12:37:57.318Z,905
2019-04-27T12:38:58.782Z,663
2019-04-27T12:40:00.300Z,675
2019-04-27T12:41:01.822Z,821
2019-04-27T12:42:03.353Z,815
2019-04-27T12:43:04.834Z,720
2019-04-27T12:44:07.136Z,675
2019-04-27T12:45:07.664Z,556
2019-04-27T12:46:09.101Z,500
2019-04-27T12:47:10.559Z,416
2019-04-27T12:48:11.993Z,326
2019-04-27T12:49:13.423Z,315
2019-04-27T12:50:14.929Z,506
2019-04-27T12:51:16.369Z,658
2019-04-27T12:52:17.838Z,748
2019-04-27T12:53:19.283Z,956
2019-04-27T12:54:20.733Z,1096
2019-04-27T12:55:22.454Z,1063
2019-04-27T12:56:23.856Z,939
2019-04-27T12:57:26.332Z,967
2019-04-27T12:58:26.604Z,1012
2019-04-27T12:59:27.964Z,950
2019-04-27T13:00:29.374Z,916
2019-04-27T13:01:30.666Z,759
2019-04-27T13:02:32.043Z,624
2019-04-27T13:03:33.462Z,680
2019-04-27T13:04:36.480Z,731
2019-04-27T13:05:36.098Z,776
2019-04-27T13:06:37.464Z,742
2019-04-27T13:07:38.828Z,618
2019-04-27T13:08:40.199Z,545
2019-04-27T13:09:41.562Z,551
2019-04-27T13:10:42.923Z,573
2019-04-27T13:11:45.809Z,590
2019-04-27T13:12:46.093Z,556
2019-04-27T13:13:46.954Z,528
2019-04-27T13:14:48.325Z,540
2019-04-27T13:15:49.698Z,495
2019-04-27T13:16:51.069Z,365
2019-04-27T13:17:52.434Z,371
2019-04-27T13:18:53.797Z,483
2019-04-27T13:19:56.079Z,399
2019-04-27T13:20:56.504Z,247
2019-04-27T13:21:57.862Z,191
2019-04-27T13:23:01.651Z,191
2019-04-27T13:24:03.937Z,185
2019-04-27T13:25:01.889Z,185
2019-04-27T13:26:03.280Z,202
2019-04-27T13:27:06.363Z,236
2019-04-27T13:28:05.979Z,219
2019-04-27T13:29:07.342Z,230
2019-04-27T13:30:08.708Z,241
2019-04-27T13:31:10.067Z,320
2019-04-27T13:32:11.429Z,348
2019-04-27T13:33:12.834Z,405
2019-04-27T13:34:15.782Z,410
2019-04-27T13:35:15.815Z,320
2019-04-27T13:36:16.910Z,196
2019-04-27T13:37:18.273Z,146
2019-04-27T13:38:19.651Z,151
2019-04-27T13:39:21.029Z,140
2019-04-27T13:40:22.392Z,157
2019-04-27T13:41:30.342Z,191
2019-04-27T13:42:25.791Z,225
2019-04-27T13:43:26.409Z,241
2019-04-27T13:44:27.777Z,270
2019-04-27T13:45:29.195Z,303
2019-04-27T13:46:30.633Z,315
2019-04-27T13:47:31.997Z,354
2019-04-27T13:48:33.376Z,309
2019-04-27T13:49:36.317Z,151
2019-04-27T13:50:37.203Z,129
2019-04-27T13:51:37.412Z,196
2019-04-27T13:52:38.767Z,281
2019-04-27T13:53:40.120Z,337
2019-04-27T13:54:41.493Z,405
2019-04-27T13:55:42.863Z,506
2019-04-27T13:56:46.000Z,573
2019-04-27T13:57:50.463Z,523
2019-04-27T13:58:46.903Z,433
2019-04-27T13:59:48.266Z,343
2019-04-27T14:00:49.633Z,292
2019-04-27T14:01:51.003Z,247
2019-04-27T14:02:53.527Z,219
2019-04-27T14:03:53.703Z,208
2019-04-27T14:04:55.077Z,213
2019-04-27T14:05:56.880Z,253
2019-04-27T14:06:59.033Z,298
2019-04-27T14:07:59.233Z,354
2019-04-27T14:09:00.478Z,382
2019-04-27T14:10:01.834Z,382
2019-04-27T14:11:03.198Z,388
2019-04-27T14:12:04.581Z,365
2019-04-27T14:13:05.944Z,331
2019-04-27T14:14:07.301Z,309
2019-04-27T14:15:08.737Z,292
2019-04-27T14:16:10.059Z,270
2019-04-27T14:17:11.426Z,247
2019-04-27T14:18:12.803Z,241
2019-04-27T14:19:14.208Z,230
2019-04-27T14:20:15.594Z,241
2019-04-27T14:21:16.950Z,264
2019-04-27T14:22:18.377Z,292
2019-04-27T14:23:19.704Z,309
2019-04-27T14:24:27.756Z,247